Time;durP1;ratioP1;P1;durP2;ratioP2;P2;SDS_P1;SDS_P2;PMS_P1;PMS_P2;Temp;Humidity;BMP_temperature;BMP_pressure;BME280_temperature;BME280_humidity;BME280_pressure;Samples;Min_cycle;Max_cycle;Signal;HPM_P1;HPM_P2
2021/08/19 00:01:01;;;;;;;1.23;0.80;;;24.10;56.90;;;;;;5003749;28;20039;-73
2021/08/19 00:03:27;;;;;;;0.73;0.70;;;24.20;56.90;;;;;;5004520;28;20399;-71
2021/08/19 00:05:53;;;;;;;1.50;0.73;;;24.20;56.90;;;;;;5003535;28;20033;-71
2021/08/19 00:08:18;;;;;;;1.40;0.70;;;24.20;56.90;;;;;;5003530;28;20033;-71
2021/08/19 00:10:44;;;;;;;2.25;1.27;;;24.20;56.90;;;;;;5003218;28;20030;-64
2021/08/19 00:13:10;;;;;;;1.08;0.57;;;24.20;56.90;;;;;;5005771;28;20467;-70
2021/08/19 00:15:35;;;;;;;1.15;0.60;;;24.20;56.90;;;;;;5015213;28;20448;-69
2021/08/19 00:18:01;;;;;;;0.93;0.70;;;24.20;56.90;;;;;;5014143;28;20062;-70
2021/08/19 00:20:27;;;;;;;0.90;0.60;;;24.20;56.90;;;;;;5014692;28;20025;-71
2021/08/19 00:22:53;;;;;;;0.95;0.50;;;24.20;57.00;;;;;;5010781;28;20045;-68
2021/08/19 00:25:19;;;;;;;0.75;0.60;;;24.20;57.10;;;;;;5004459;28;20034;-69
2021/08/19 00:27:44;;;;;;;1.17;0.80;;;24.20;57.10;;;;;;5003267;28;20041;-65
2021/08/19 00:30:10;;;;;;;1.40;0.80;;;24.20;57.00;;;;;;5002908;28;20080;-71
2021/08/19 00:32:36;;;;;;;2.80;0.73;;;24.20;57.10;;;;;;5004613;28;20017;-69
2021/08/19 00:35:02;;;;;;;0.75;0.50;;;24.20;57.10;;;;;;5002307;28;20641;-70
2021/08/19 00:37:28;;;;;;;0.73;0.68;;;24.20;57.10;;;;;;5003337;28;20018;-70
2021/08/19 00:39:53;;;;;;;2.38;0.60;;;24.20;57.10;;;;;;5003286;28;20022;-70
2021/08/19 00:42:19;;;;;;;0.68;0.45;;;24.20;57.10;;;;;;5002540;28;20503;-69
2021/08/19 00:44:45;;;;;;;1.42;0.52;;;24.10;57.10;;;;;;5002996;28;20411;-65
2021/08/19 00:47:11;;;;;;;0.75;0.60;;;24.10;57.10;;;;;;5004230;28;20022;-68
2021/08/19 00:49:41;;;;;;;1.52;0.90;;;24.10;57.10;;;;;;5002100;28;20033;-67
2021/08/19 00:52:07;;;;;;;1.17;0.60;;;24.10;57.10;;;;;;5002816;28;20547;-68
2021/08/19 00:54:34;;;;;;;1.45;0.90;;;24.20;57.20;;;;;;5001498;28;20109;-70
2021/08/19 00:57:01;;;;;;;1.77;0.57;;;24.20;57.20;;;;;;5003458;28;20014;-71
2021/08/19 00:59:30;;;;;;;1.52;0.65;;;24.20;57.20;;;;;;5003417;28;20025;-72
2021/08/19 01:01:56;;;;;;;0.50;0.50;;;24.20;57.20;;;;;;5001228;28;20026;-71
2021/08/19 01:04:22;;;;;;;2.28;0.68;;;24.20;57.20;;;;;;5002303;28;20018;-70
2021/08/19 01:06:49;;;;;;;1.00;0.70;;;24.20;57.20;;;;;;5002854;28;20033;-69
2021/08/19 01:09:16;;;;;;;1.00;0.60;;;24.20;57.20;;;;;;5001953;28;20121;-67
2021/08/19 01:11:43;;;;;;;0.95;0.57;;;24.20;57.20;;;;;;5003719;28;20046;-69
2021/08/19 01:14:15;;;;;;;0.68;0.57;;;24.10;57.10;;;;;;5002226;28;20476;-69
2021/08/19 01:16:42;;;;;;;0.98;0.68;;;24.20;57.20;;;;;;5002574;28;20121;-68
2021/08/19 01:19:14;;;;;;;1.45;0.65;;;24.10;57.10;;;;;;5002530;28;20040;-68
2021/08/19 01:21:40;;;;;;;2.00;0.52;;;24.20;57.20;;;;;;5002296;28;20035;-69
2021/08/19 01:24:06;;;;;;;0.75;0.55;;;24.20;57.20;;;;;;5001589;28;20871;-69
2021/08/19 01:26:32;;;;;;;0.65;0.45;;;24.20;57.10;;;;;;5003612;28;20077;-68
2021/08/19 01:28:59;;;;;;;0.70;0.50;;;24.20;57.10;;;;;;5000292;28;20076;-68
2021/08/19 01:31:26;;;;;;;0.52;0.50;;;24.20;57.10;;;;;;5002807;28;20061;-69
2021/08/19 01:33:52;;;;;;;1.13;0.70;;;24.20;57.10;;;;;;5001714;28;20058;-67
2021/08/19 01:36:18;;;;;;;1.30;0.65;;;24.20;57.10;;;;;;5001604;28;20033;-72
2021/08/19 01:38:44;;;;;;;0.70;0.50;;;24.20;57.10;;;;;;5002327;28;20025;-66
2021/08/19 01:41:11;;;;;;;0.90;0.60;;;24.20;57.10;;;;;;5001369;28;20061;-73
2021/08/19 01:43:40;;;;;;;1.63;0.50;;;24.10;57.10;;;;;;5003017;28;20467;-73
2021/08/19 01:46:10;;;;;;;0.77;0.60;;;24.20;57.10;;;;;;5001766;28;20022;-73
2021/08/19 01:48:40;;;;;;;1.67;0.60;;;24.20;57.20;;;;;;5001233;28;20092;-73
2021/08/19 01:51:06;;;;;;;1.90;0.60;;;24.20;57.10;;;;;;5001405;28;20029;-74
2021/08/19 01:53:32;;;;;;;0.68;0.50;;;24.20;57.20;;;;;;5003168;28;20052;-71
2021/08/19 01:55:58;;;;;;;1.40;0.60;;;24.20;57.20;;;;;;5000078;28;20388;-72
2021/08/19 01:58:24;;;;;;;1.20;0.80;;;24.10;57.10;;;;;;5002220;28;20053;-67
2021/08/19 02:00:50;;;;;;;0.50;0.50;;;24.10;57.20;;;;;;5001866;28;20033;-67
2021/08/19 02:03:16;;;;;;;0.70;0.43;;;24.10;57.10;;;;;;5001205;28;20030;-71
2021/08/19 02:05:43;;;;;;;0.82;0.45;;;24.20;57.10;;;;;;5001475;28;20030;-67
2021/08/19 02:08:09;;;;;;;0.82;0.60;;;24.20;57.10;;;;;;5001813;28;20105;-69
2021/08/19 02:10:36;;;;;;;0.75;0.60;;;24.20;57.20;;;;;;5000604;28;20031;-69
2021/08/19 02:13:02;;;;;;;0.98;0.70;;;24.10;57.10;;;;;;5001401;28;20053;-71
2021/08/19 02:15:28;;;;;;;1.80;0.60;;;24.10;57.00;;;;;;5002014;28;20084;-72
2021/08/19 02:17:54;;;;;;;0.77;0.60;;;24.10;57.10;;;;;;4999887;28;20109;-69
2021/08/19 02:20:19;;;;;;;0.68;0.60;;;24.10;57.10;;;;;;5001159;28;20026;-69
2021/08/19 02:22:47;;;;;;;1.23;0.40;;;24.10;57.00;;;;;;5001221;28;20034;-65
2021/08/19 02:25:14;;;;;;;1.58;0.50;;;24.20;57.10;;;;;;5000562;28;20112;-67
2021/08/19 02:27:40;;;;;;;0.98;0.50;;;24.20;57.10;;;;;;5003287;28;20163;-68
2021/08/19 02:30:06;;;;;;;0.75;0.70;;;24.20;57.10;;;;;;4998093;28;20018;-68
2021/08/19 02:32:32;;;;;;;2.15;0.57;;;24.20;57.20;;;;;;4999474;28;20471;-67
2021/08/19 02:34:58;;;;;;;1.75;0.70;;;24.20;57.20;;;;;;5001749;28;20037;-70
2021/08/19 02:37:24;;;;;;;0.60;0.50;;;24.20;57.20;;;;;;5000670;28;20026;-70
2021/08/19 02:39:49;;;;;;;0.80;0.52;;;24.20;57.20;;;;;;5000071;28;20057;-70
2021/08/19 02:42:15;;;;;;;0.68;0.50;;;24.20;57.10;;;;;;5002344;28;20138;-67
2021/08/19 02:44:41;;;;;;;0.50;0.35;;;24.20;57.20;;;;;;4997087;28;20029;-68
2021/08/19 02:47:07;;;;;;;0.73;0.52;;;24.20;57.10;;;;;;4992173;28;20028;-71
2021/08/19 02:49:33;;;;;;;0.70;0.60;;;24.20;57.20;;;;;;4992845;28;20464;-70
2021/08/19 02:51:59;;;;;;;0.93;0.77;;;24.20;57.20;;;;;;4992142;28;20030;-70
2021/08/19 02:54:24;;;;;;;0.95;0.65;;;24.20;57.20;;;;;;4992468;28;20498;-68
2021/08/19 02:56:50;;;;;;;0.68;0.50;;;24.20;57.10;;;;;;4991659;28;20027;-68
2021/08/19 02:59:15;;;;;;;0.65;0.47;;;24.10;57.10;;;;;;4995515;28;20106;-66
2021/08/19 03:01:41;;;;;;;0.43;0.40;;;24.20;57.10;;;;;;5010993;28;20124;-71
2021/08/19 03:04:07;;;;;;;2.85;0.60;;;24.20;57.10;;;;;;5011165;28;20116;-68
2021/08/19 03:06:33;;;;;;;0.80;0.70;;;24.20;57.40;;;;;;5011865;28;20452;-68
2021/08/19 03:08:58;;;;;;;1.50;0.88;;;24.10;57.10;;;;;;5009829;28;20033;-68
2021/08/19 03:11:24;;;;;;;0.57;0.47;;;24.10;57.20;;;;;;4992039;28;20042;-68
2021/08/19 03:13:50;;;;;;;0.57;0.55;;;24.10;57.20;;;;;;4991827;28;20041;-68
2021/08/19 03:16:16;;;;;;;2.08;0.75;;;24.10;57.10;;;;;;4992361;28;20077;-68
2021/08/19 03:18:42;;;;;;;0.50;0.50;;;24.10;57.10;;;;;;4996624;28;20030;-69
2021/08/19 03:21:09;;;;;;;0.90;0.65;;;24.10;57.10;;;;;;4995734;28;20078;-68
2021/08/19 03:23:34;;;;;;;0.90;0.60;;;24.20;57.10;;;;;;4996684;28;20046;-68
2021/08/19 03:26:00;;;;;;;0.70;0.60;;;24.20;57.10;;;;;;4995952;28;20027;-68
2021/08/19 03:28:26;;;;;;;0.50;0.50;;;24.20;57.20;;;;;;4996163;28;20037;-68
2021/08/19 03:30:54;;;;;;;0.70;0.57;;;24.20;57.20;;;;;;4995531;28;20038;-68
2021/08/19 03:33:20;;;;;;;0.32;0.32;;;24.20;57.20;;;;;;4996487;28;20030;-68
2021/08/19 03:35:46;;;;;;;1.35;0.52;;;24.20;57.10;;;;;;4996160;28;20026;-65
2021/08/19 03:38:12;;;;;;;0.70;0.60;;;24.10;57.10;;;;;;4995844;28;20026;-68
2021/08/19 03:40:38;;;;;;;0.93;0.50;;;24.20;57.10;;;;;;4995666;28;20046;-68
2021/08/19 03:43:04;;;;;;;0.50;0.50;;;24.10;57.10;;;;;;4995266;28;20061;-68
2021/08/19 03:45:30;;;;;;;1.48;0.70;;;24.20;57.20;;;;;;4995768;28;20126;-68
2021/08/19 03:47:55;;;;;;;1.13;0.60;;;24.10;57.00;;;;;;4995426;28;20062;-68
2021/08/19 03:50:21;;;;;;;0.73;0.63;;;24.20;57.10;;;;;;4995933;28;20468;-67
2021/08/19 03:52:47;;;;;;;1.10;0.70;;;24.20;57.10;;;;;;4995456;28;20038;-65
2021/08/19 03:55:13;;;;;;;1.70;0.60;;;24.20;57.10;;;;;;4995688;28;20026;-68
2021/08/19 03:57:39;;;;;;;0.63;0.57;;;24.20;57.10;;;;;;4995950;28;20053;-68
2021/08/19 04:00:06;;;;;;;0.65;0.50;;;24.20;57.10;;;;;;4995132;28;20030;-68
2021/08/19 04:02:32;;;;;;;0.93;0.60;;;24.10;57.00;;;;;;4995422;28;20022;-68
2021/08/19 04:04:58;;;;;;;1.10;0.80;;;24.10;57.10;;;;;;4995159;28;20443;-67
2021/08/19 04:07:23;;;;;;;0.60;0.50;;;24.10;57.10;;;;;;4995420;28;20026;-68
2021/08/19 04:09:49;;;;;;;1.00;0.60;;;24.10;57.10;;;;;;5003600;28;20034;-64
2021/08/19 04:12:14;;;;;;;0.63;0.63;;;24.10;57.10;;;;;;5015423;28;20376;-68
2021/08/19 04:14:40;;;;;;;0.60;0.50;;;24.20;57.10;;;;;;5014999;28;20419;-68
2021/08/19 04:17:06;;;;;;;0.95;0.60;;;24.10;57.00;;;;;;5014283;28;20041;-68
2021/08/19 04:19:32;;;;;;;1.60;0.60;;;24.20;57.10;;;;;;5015214;28;20026;-69
2021/08/19 04:21:57;;;;;;;1.65;0.68;;;24.20;57.20;;;;;;5014030;28;20119;-69
2021/08/19 04:24:23;;;;;;;0.60;0.50;;;24.20;57.10;;;;;;5014884;28;20383;-68
2021/08/19 04:26:48;;;;;;;0.60;0.50;;;24.20;57.20;;;;;;5014377;28;20037;-65
2021/08/19 04:29:14;;;;;;;0.52;0.40;;;24.20;57.10;;;;;;5013351;28;20026;-69
2021/08/19 04:31:40;;;;;;;1.17;0.68;;;24.20;57.10;;;;;;5014796;28;20040;-68
2021/08/19 04:34:05;;;;;;;1.20;0.70;;;24.20;57.10;;;;;;5013909;28;20026;-69
2021/08/19 04:36:32;;;;;;;0.50;0.43;;;24.20;57.10;;;;;;5014743;28;20486;-69
2021/08/19 04:38:58;;;;;;;0.98;0.60;;;24.20;57.10;;;;;;5013744;28;20356;-68
2021/08/19 04:41:23;;;;;;;0.90;0.60;;;24.10;57.00;;;;;;5014625;28;20056;-68
2021/08/19 04:43:49;;;;;;;0.50;0.40;;;24.10;57.00;;;;;;5013298;28;20117;-64
2021/08/19 04:46:15;;;;;;;1.27;0.60;;;24.10;57.00;;;;;;5014255;28;20026;-71
2021/08/19 04:48:40;;;;;;;0.73;0.60;;;24.10;57.00;;;;;;5014503;28;20026;-72
2021/08/19 04:51:06;;;;;;;0.90;0.60;;;24.10;57.00;;;;;;5013811;28;20088;-72
2021/08/19 04:53:32;;;;;;;1.48;0.73;;;24.10;57.10;;;;;;5014232;28;20030;-68
2021/08/19 04:55:57;;;;;;;0.90;0.50;;;24.10;57.00;;;;;;5013311;28;20030;-69
2021/08/19 04:58:24;;;;;;;2.25;0.52;;;24.10;57.00;;;;;;5014438;28;20026;-70
2021/08/19 05:00:50;;;;;;;0.80;0.73;;;24.10;57.00;;;;;;5014014;28;20038;-64
2021/08/19 05:03:16;;;;;;;0.98;0.65;;;24.10;57.00;;;;;;5014104;28;20190;-68
2021/08/19 05:05:42;;;;;;;1.90;0.60;;;24.10;57.00;;;;;;5014341;28;20034;-68
2021/08/19 05:08:07;;;;;;;0.73;0.50;;;24.10;57.00;;;;;;5013478;28;20034;-69
2021/08/19 05:10:33;;;;;;;1.70;0.80;;;24.10;57.00;;;;;;4999324;28;20118;-70
2021/08/19 05:12:59;;;;;;;1.17;0.73;;;24.10;57.00;;;;;;4993471;28;20109;-67
2021/08/19 05:15:24;;;;;;;0.80;0.50;;;24.10;57.60;;;;;;4994569;28;20113;-68
2021/08/19 05:17:50;;;;;;;1.00;0.50;;;24.20;57.10;;;;;;4993939;28;20018;-65
2021/08/19 05:20:16;;;;;;;0.57;0.50;;;24.20;57.10;;;;;;4994105;28;20030;-68
2021/08/19 05:22:42;;;;;;;1.13;0.80;;;24.10;57.00;;;;;;4994174;28;20465;-68
2021/08/19 05:25:08;;;;;;;2.08;0.60;;;24.10;57.00;;;;;;4993606;28;20030;-68
2021/08/19 05:27:33;;;;;;;0.43;0.38;;;24.20;57.10;;;;;;4993930;28;20038;-69
2021/08/19 05:29:59;;;;;;;0.63;0.50;;;24.10;57.00;;;;;;4993519;28;20027;-69
2021/08/19 05:32:25;;;;;;;2.08;0.60;;;24.10;57.00;;;;;;4994183;28;20026;-69
2021/08/19 05:34:50;;;;;;;0.60;0.55;;;24.10;57.00;;;;;;4993488;28;20042;-65
2021/08/19 05:37:16;;;;;;;1.45;0.85;;;24.10;57.00;;;;;;4993057;28;20480;-68
2021/08/19 05:39:41;;;;;;;1.90;0.60;;;24.10;57.00;;;;;;4993794;28;20033;-68
2021/08/19 05:42:07;;;;;;;1.42;0.85;;;24.10;56.90;;;;;;4992766;28;20050;-68
2021/08/19 05:44:33;;;;;;;1.30;0.60;;;24.10;56.90;;;;;;4993980;28;20063;-68
2021/08/19 05:46:59;;;;;;;0.60;0.50;;;24.10;57.00;;;;;;4992777;28;20026;-67
2021/08/19 05:49:24;;;;;;;1.23;0.52;;;24.10;57.00;;;;;;4993403;28;20030;-67
2021/08/19 05:51:50;;;;;;;0.90;0.68;;;24.10;57.00;;;;;;4993753;28;20373;-67
2021/08/19 05:54:16;;;;;;;0.52;0.50;;;24.10;57.00;;;;;;4992591;28;20030;-63
2021/08/19 05:56:41;;;;;;;0.85;0.60;;;24.10;57.10;;;;;;4993786;28;20030;-63
2021/08/19 05:59:07;;;;;;;1.05;0.85;;;24.10;57.10;;;;;;4992484;28;20524;-64
2021/08/19 06:01:33;;;;;;;1.20;0.80;;;24.10;57.00;;;;;;4993654;28;20044;-68
2021/08/19 06:03:58;;;;;;;0.75;0.52;;;24.10;57.10;;;;;;4992623;28;20085;-68
2021/08/19 06:06:24;;;;;;;1.85;0.50;;;24.10;57.00;;;;;;4993372;28;20035;-68
2021/08/19 06:08:50;;;;;;;1.27;0.82;;;24.10;57.00;;;;;;4994231;28;20080;-68
2021/08/19 06:11:15;;;;;;;0.80;0.60;;;24.10;57.00;;;;;;5011012;28;20038;-68
2021/08/19 06:13:41;;;;;;;1.20;0.60;;;24.20;57.70;;;;;;5012988;28;20033;-68
2021/08/19 06:16:07;;;;;;;0.85;0.57;;;24.20;57.00;;;;;;5011935;28;20029;-68
2021/08/19 06:18:32;;;;;;;1.30;0.52;;;24.10;57.00;;;;;;5012902;28;20452;-69
2021/08/19 06:20:58;;;;;;;1.90;0.70;;;24.20;57.00;;;;;;5011964;28;20045;-68
2021/08/19 06:23:24;;;;;;;1.13;0.60;;;24.20;57.10;;;;;;5006497;28;20034;-68
2021/08/19 06:25:49;;;;;;;1.77;0.60;;;24.10;56.90;;;;;;5000690;28;20624;-67
2021/08/19 06:28:16;;;;;;;2.50;0.75;;;24.20;57.00;;;;;;5001851;28;20022;-68
2021/08/19 06:30:41;;;;;;;0.90;0.52;;;24.20;57.10;;;;;;5001596;28;20030;-68
2021/08/19 06:33:09;;;;;;;4.00;1.30;;;24.10;57.10;;;;;;5000266;28;20577;-68
2021/08/19 06:35:35;;;;;;;2.45;0.80;;;24.10;57.10;;;;;;5002430;28;20429;-68
2021/08/19 06:38:00;;;;;;;1.02;0.85;;;24.10;57.00;;;;;;5000641;28;20050;-68
2021/08/19 06:40:26;;;;;;;1.98;0.75;;;24.10;57.00;;;;;;5000548;28;20172;-64
2021/08/19 06:42:52;;;;;;;1.85;0.60;;;24.10;57.10;;;;;;5002685;28;20018;-64
2021/08/19 06:45:17;;;;;;;1.20;0.60;;;24.10;57.10;;;;;;4999839;28;20038;-67
2021/08/19 06:47:43;;;;;;;2.00;0.80;;;24.20;57.20;;;;;;5001283;28;20025;-67
2021/08/19 06:50:10;;;;;;;0.95;0.65;;;24.10;57.10;;;;;;5001777;28;20019;-68
2021/08/19 06:52:40;;;;;;;2.75;0.93;;;24.10;57.10;;;;;;4999770;28;20023;-68
2021/08/19 06:55:08;;;;;;;2.03;0.90;;;24.10;57.10;;;;;;5000028;28;20049;-68
2021/08/19 06:57:34;;;;;;;5.13;1.17;;;24.10;57.30;;;;;;5002244;28;20091;-68
2021/08/19 06:59:59;;;;;;;2.42;1.05;;;24.10;57.30;;;;;;4999543;28;20022;-67
2021/08/19 07:02:25;;;;;;;3.25;0.95;;;24.10;57.40;;;;;;5000893;28;20100;-68
2021/08/19 07:04:50;;;;;;;1.20;0.85;;;24.10;57.50;;;;;;5001709;28;20022;-67
2021/08/19 07:07:16;;;;;;;1.70;0.80;;;24.10;57.40;;;;;;4999857;28;20094;-68
2021/08/19 07:09:42;;;;;;;1.27;0.68;;;24.00;57.20;;;;;;5002007;28;20038;-68
2021/08/19 07:12:08;;;;;;;1.88;0.90;;;24.00;57.30;;;;;;5000363;28;20398;-68
2021/08/19 07:14:33;;;;;;;2.42;0.93;;;24.00;57.30;;;;;;5004496;28;20022;-67
2021/08/19 07:16:59;;;;;;;2.22;0.70;;;24.00;57.30;;;;;;4999899;28;20042;-68
2021/08/19 07:19:24;;;;;;;2.95;0.90;;;24.00;57.20;;;;;;5001140;28;20018;-68
2021/08/19 07:21:52;;;;;;;2.25;0.77;;;24.00;57.20;;;;;;5002103;28;20038;-67
2021/08/19 07:24:18;;;;;;;1.50;0.90;;;24.10;57.20;;;;;;4996000;28;20034;-68
2021/08/19 07:26:43;;;;;;;3.50;0.95;;;24.10;57.40;;;;;;5003415;28;20025;-68
2021/08/19 07:29:09;;;;;;;3.50;1.15;;;24.10;57.50;;;;;;5003384;28;20022;-67
2021/08/19 07:31:38;;;;;;;2.75;1.05;;;24.00;57.40;;;;;;5000445;28;20026;-68
2021/08/19 07:34:04;;;;;;;2.30;0.93;;;24.00;57.80;;;;;;5000141;28;20435;-68
2021/08/19 07:36:30;;;;;;;3.25;1.52;;;24.00;57.80;;;;;;5000868;28;20034;-68
2021/08/19 07:38:59;;;;;;;1.60;0.70;;;24.00;57.70;;;;;;4999589;28;20448;-67
2021/08/19 07:41:25;;;;;;;2.78;1.02;;;24.10;57.60;;;;;;5000390;28;20042;-70
2021/08/19 07:43:51;;;;;;;8.35;1.33;;;24.10;58.00;;;;;;5001664;28;20065;-65
2021/08/19 07:46:16;;;;;;;3.53;0.88;;;24.10;58.30;;;;;;4999533;28;20456;-66
2021/08/19 07:48:44;;;;;;;5.07;1.20;;;24.20;58.20;;;;;;5000873;28;20104;-67
2021/08/19 07:51:09;;;;;;;4.97;1.23;;;24.20;58.40;;;;;;4998906;28;20029;-67
2021/08/19 07:53:35;;;;;;;2.08;0.95;;;24.10;58.00;;;;;;4999110;28;20026;-66
2021/08/19 07:56:01;;;;;;;2.55;0.77;;;24.20;57.80;;;;;;5000238;28;20113;-66
2021/08/19 07:58:26;;;;;;;2.17;1.45;;;24.20;56.80;;;;;;4998947;28;20026;-67
2021/08/19 08:00:52;;;;;;;2.28;0.80;;;24.20;56.70;;;;;;5001551;28;20496;-67
2021/08/19 08:03:18;;;;;;;4.03;0.95;;;24.20;56.10;;;;;;5000496;28;20081;-68
2021/08/19 08:05:43;;;;;;;2.05;0.85;;;24.20;57.10;;;;;;5003967;28;20525;-66
2021/08/19 08:08:11;;;;;;;1.60;1.17;;;24.20;56.70;;;;;;5003680;28;20037;-67
2021/08/19 08:10:38;;;;;;;2.03;0.93;;;24.20;58.00;;;;;;5008912;28;20386;-70
2021/08/19 08:13:06;;;;;;;3.65;1.10;;;24.20;56.80;;;;;;5015270;28;20360;-68
2021/08/19 08:15:32;;;;;;;3.38;1.20;;;24.20;56.50;;;;;;5015622;28;20455;-68
2021/08/19 08:17:58;;;;;;;1.27;0.80;;;24.20;56.00;;;;;;5014083;28;20088;-67
2021/08/19 08:20:23;;;;;;;1.48;0.90;;;24.20;56.10;;;;;;5004820;28;20026;-68
2021/08/19 08:22:51;;;;;;;2.95;0.80;;;24.20;56.00;;;;;;5005868;28;20092;-66
2021/08/19 08:25:17;;;;;;;2.25;0.60;;;24.20;56.30;;;;;;5005387;28;20026;-67
2021/08/19 08:27:53;;;;;;;2.38;0.82;;;24.20;56.00;;;;;;5005323;28;20025;-67
2021/08/19 08:30:19;;;;;;;3.50;0.98;;;24.20;55.30;;;;;;5002295;28;20041;-66
2021/08/19 08:32:45;;;;;;;0.90;0.65;;;24.10;56.20;;;;;;5004860;28;20072;-66
2021/08/19 08:35:12;;;;;;;1.48;0.77;;;24.10;56.80;;;;;;5002360;28;20030;-67
2021/08/19 08:37:38;;;;;;;2.45;0.95;;;24.10;56.80;;;;;;5002526;28;20014;-69
2021/08/19 08:40:04;;;;;;;2.53;0.95;;;24.20;56.90;;;;;;5004101;28;20045;-71
2021/08/19 08:42:30;;;;;;;2.03;0.73;;;24.20;56.70;;;;;;5002942;28;20038;-71
2021/08/19 08:44:56;;;;;;;3.88;1.20;;;24.10;56.70;;;;;;5004651;28;20072;-67
2021/08/19 08:47:22;;;;;;;2.20;0.70;;;24.10;56.70;;;;;;5004062;28;20045;-71
2021/08/19 08:49:48;;;;;;;3.38;1.55;;;24.20;56.70;;;;;;5003597;28;20056;-70
2021/08/19 08:52:13;;;;;;;1.60;0.95;;;24.00;56.20;;;;;;5001440;28;20442;-71
2021/08/19 08:54:39;;;;;;;2.35;0.90;;;23.50;56.20;;;;;;5002268;28;20101;-71
2021/08/19 08:57:05;;;;;;;0.88;0.82;;;23.50;56.70;;;;;;5001693;28;20022;-71
2021/08/19 08:59:31;;;;;;;2.97;1.20;;;23.30;57.60;;;;;;5014015;28;20487;-72
2021/08/19 09:01:56;;;;;;;1.92;1.00;;;23.40;57.00;;;;;;5013669;28;20117;-68
2021/08/19 09:04:23;;;;;;;1.83;0.93;;;23.20;56.60;;;;;;5013577;28;20028;-71
2021/08/19 09:06:49;;;;;;;3.17;1.00;;;23.10;57.30;;;;;;5014328;28;20061;-72
2021/08/19 09:09:17;;;;;;;2.15;0.90;;;23.30;57.30;;;;;;5009255;28;20054;-71
2021/08/19 09:11:55;;;;;;;0.80;0.80;;;23.40;57.20;;;;;;4994307;28;20105;-70
2021/08/19 09:14:23;;;;;;;2.47;0.80;;;23.50;57.00;;;;;;4993550;28;20041;-71
2021/08/19 09:16:49;;;;;;;1.42;1.00;;;23.40;57.50;;;;;;4993174;28;20026;-71
2021/08/19 09:19:17;;;;;;;2.15;0.75;;;23.40;56.80;;;;;;4993699;28;20349;-71
2021/08/19 09:21:55;;;;;;;1.20;0.88;;;23.30;57.20;;;;;;5013080;28;20113;-71
2021/08/19 09:24:24;;;;;;;2.63;0.70;;;23.20;57.70;;;;;;5013459;28;20040;-71
2021/08/19 09:26:52;;;;;;;2.30;0.80;;;23.10;58.20;;;;;;5013731;28;20368;-71
2021/08/19 09:29:26;;;;;;;2.63;0.80;;;23.10;57.90;;;;;;5012817;28;20598;-71
2021/08/19 09:32:16;;;;;;;2.88;0.98;;;23.10;58.10;;;;;;5013782;28;20439;-71
2021/08/19 09:34:44;;;;;;;1.45;0.95;;;23.00;58.30;;;;;;5014051;28;20034;-71
2021/08/19 09:37:12;;;;;;;1.65;1.15;;;22.90;58.10;;;;;;5012928;28;20391;-71
2021/08/19 09:39:44;;;;;;;1.80;1.00;;;23.10;58.20;;;;;;5012919;28;20036;-72
2021/08/19 09:42:11;;;;;;;2.95;0.70;;;23.10;57.70;;;;;;5013017;28;20510;-71
2021/08/19 09:44:42;;;;;;;1.40;0.68;;;23.20;57.50;;;;;;5013854;28;20037;-71
2021/08/19 09:47:31;;;;;;;1.42;0.90;;;23.10;57.80;;;;;;5012850;28;20112;-71
2021/08/19 09:50:12;;;;;;;2.85;1.00;;;23.10;57.60;;;;;;5013211;28;20100;-71
2021/08/19 09:52:38;;;;;;;1.77;0.90;;;23.20;57.10;;;;;;5013457;28;20032;-71
2021/08/19 09:55:30;;;;;;;1.25;0.77;;;23.30;57.50;;;;;;5012314;28;20104;-71
2021/08/19 09:57:58;;;;;;;0.85;0.70;;;23.30;57.40;;;;;;5013006;28;20038;-72
2021/08/19 10:00:29;;;;;;;1.45;0.80;;;23.30;56.50;;;;;;5012388;28;20539;-72
2021/08/19 10:02:56;;;;;;;1.52;1.42;;;23.30;56.80;;;;;;5013168;28;20379;-71
2021/08/19 10:05:22;;;;;;;1.88;0.90;;;23.30;56.00;;;;;;5012247;28;20662;-71
2021/08/19 10:07:50;;;;;;;0.63;0.60;;;23.10;56.20;;;;;;5013224;28;20054;-71
2021/08/19 10:10:16;;;;;;;0.80;0.68;;;23.20;56.40;;;;;;4999853;28;20039;-68
2021/08/19 10:12:44;;;;;;;1.92;0.40;;;23.20;55.70;;;;;;4993443;28;20096;-70
2021/08/19 10:15:10;;;;;;;2.20;0.70;;;23.30;56.10;;;;;;4992768;28;20030;-71
2021/08/19 10:17:39;;;;;;;0.65;0.50;;;23.30;54.70;;;;;;4993201;28;20024;-72
2021/08/19 10:20:08;;;;;;;1.08;0.60;;;23.20;54.40;;;;;;4998669;28;20106;-71
2021/08/19 10:22:34;;;;;;;2.83;0.77;;;23.20;54.60;;;;;;5013127;28;20068;-71
2021/08/19 10:25:01;;;;;;;3.45;1.23;;;23.20;55.10;;;;;;5012563;28;20467;-67
2021/08/19 10:27:29;;;;;;;1.65;0.80;;;23.20;55.00;;;;;;5011639;28;20032;-72
2021/08/19 10:29:59;;;;;;;2.30;1.20;;;23.20;55.50;;;;;;5012969;28;20022;-72
2021/08/19 10:32:39;;;;;;;1.90;0.70;;;23.30;55.40;;;;;;5011646;28;20034;-72
2021/08/19 10:35:10;;;;;;;1.13;0.70;;;23.30;55.20;;;;;;5012321;28;20026;-71
2021/08/19 10:37:45;;;;;;;1.37;0.90;;;23.20;54.40;;;;;;5012827;28;20036;-71
2021/08/19 10:40:20;;;;;;;4.20;1.08;;;23.20;55.00;;;;;;5011614;28;20314;-70
2021/08/19 10:42:56;;;;;;;1.98;1.10;;;23.20;54.60;;;;;;5013158;28;20116;-69
2021/08/19 10:45:28;;;;;;;1.98;0.70;;;23.20;54.60;;;;;;5012864;28;20021;-64
2021/08/19 10:47:54;;;;;;;1.23;0.80;;;23.20;54.80;;;;;;5012911;28;20026;-65
2021/08/19 10:50:28;;;;;;;1.63;1.02;;;23.30;55.30;;;;;;5012075;28;20364;-66
2021/08/19 10:52:58;;;;;;;2.47;1.30;;;23.30;55.00;;;;;;5012924;28;20052;-65
2021/08/19 10:55:25;;;;;;;4.25;1.70;;;23.20;54.20;;;;;;5012225;28;20394;-65
2021/08/19 10:57:53;;;;;;;6.18;1.35;;;23.10;54.40;;;;;;5012780;28;20030;-66
2021/08/19 11:00:41;;;;;;;1.45;1.00;;;23.10;54.80;;;;;;5010932;28;20467;-65
2021/08/19 11:03:07;;;;;;;1.75;0.73;;;23.20;54.20;;;;;;5012496;28;20033;-62
2021/08/19 11:05:36;;;;;;;4.10;0.90;;;23.30;54.10;;;;;;5012492;28;20467;-64
2021/08/19 11:08:04;;;;;;;1.80;0.75;;;23.30;54.30;;;;;;5012126;28;20167;-64
2021/08/19 11:10:36;;;;;;;3.08;0.80;;;23.30;53.90;;;;;;4998381;28;20064;-65
2021/08/19 11:13:05;;;;;;;1.35;0.90;;;23.40;54.50;;;;;;4992133;28;20022;-62
2021/08/19 11:15:32;;;;;;;1.92;0.90;;;23.40;54.70;;;;;;4993069;28;20111;-67
2021/08/19 11:17:59;;;;;;;2.20;0.73;;;23.40;54.70;;;;;;4992603;28;20101;-64
2021/08/19 11:20:35;;;;;;;1.60;1.00;;;23.30;54.10;;;;;;5000883;28;20099;-66
2021/08/19 11:23:11;;;;;;;1.95;0.75;;;23.20;54.70;;;;;;5012890;28;20377;-67
2021/08/19 11:25:40;;;;;;;5.00;1.02;;;23.20;54.70;;;;;;5012585;28;20022;-66
2021/08/19 11:28:14;;;;;;;0.80;0.68;;;23.20;54.90;;;;;;5011451;28;20486;-66
2021/08/19 11:30:41;;;;;;;1.45;0.90;;;23.20;54.60;;;;;;5012598;28;20026;-66
2021/08/19 11:33:17;;;;;;;2.75;0.73;;;23.20;54.80;;;;;;5011778;28;20029;-66
2021/08/19 11:35:53;;;;;;;3.42;0.85;;;23.10;54.90;;;;;;5012510;28;20021;-68
2021/08/19 11:38:22;;;;;;;1.83;0.80;;;23.10;54.70;;;;;;5013635;28;20032;-68
2021/08/19 11:40:51;;;;;;;0.90;0.60;;;23.10;55.50;;;;;;5015716;28;20387;-67
2021/08/19 11:43:26;;;;;;;0.70;0.60;;;23.10;55.70;;;;;;5015193;28;20030;-67
2021/08/19 11:46:09;;;;;;;1.40;0.90;;;23.10;56.10;;;;;;5015993;28;20022;-68
2021/08/19 11:48:37;;;;;;;1.00;0.70;;;23.10;55.90;;;;;;5015660;28;20035;-68
2021/08/19 11:51:04;;;;;;;1.23;0.70;;;23.00;56.10;;;;;;5015667;28;20041;-62
2021/08/19 11:53:31;;;;;;;2.58;0.88;;;22.90;56.20;;;;;;5015352;28;20034;-69
2021/08/19 11:56:10;;;;;;;1.88;1.08;;;22.90;56.70;;;;;;5015326;28;20034;-66
2021/08/19 11:58:36;;;;;;;1.65;0.73;;;22.90;56.20;;;;;;5014705;28;20029;-69
2021/08/19 12:01:09;;;;;;;1.08;0.68;;;23.00;56.20;;;;;;5015081;28;20034;-69
2021/08/19 12:03:39;;;;;;;1.10;0.80;;;23.00;56.40;;;;;;5015517;28;20514;-68
2021/08/19 12:06:09;;;;;;;2.25;0.93;;;23.10;56.50;;;;;;5015085;28;20375;-62
2021/08/19 12:08:37;;;;;;;2.33;1.02;;;23.10;55.90;;;;;;5015822;28;20026;-68
2021/08/19 12:11:07;;;;;;;1.42;1.00;;;23.10;56.00;;;;;;4996596;28;20042;-70
2021/08/19 12:13:35;;;;;;;1.42;0.95;;;23.10;56.20;;;;;;4995568;28;20062;-68
2021/08/19 12:16:01;;;;;;;1.20;0.90;;;23.30;56.50;;;;;;4995713;28;20061;-70
2021/08/19 12:18:27;;;;;;;1.70;0.93;;;23.30;55.50;;;;;;4995007;28;20460;-69
2021/08/19 12:21:32;;;;;;;1.02;0.82;;;23.30;55.40;;;;;;4995059;28;20038;-65
2021/08/19 12:24:19;;;;;;;1.30;0.77;;;23.40;55.90;;;;;;5012735;28;20034;-65
2021/08/19 12:27:11;;;;;;;1.27;1.00;;;23.60;56.90;;;;;;5012641;28;20535;-67
2021/08/19 12:29:52;;;;;;;2.30;0.90;;;23.70;56.60;;;;;;4995980;28;20531;-66
2021/08/19 12:32:30;;;;;;;2.70;0.95;;;23.80;56.10;;;;;;5012002;28;20042;-64
2021/08/19 12:34:57;;;;;;;1.83;0.95;;;23.80;55.70;;;;;;5012486;28;20038;-70
2021/08/19 12:37:23;;;;;;;2.50;0.93;;;23.80;55.80;;;;;;5011769;28;20030;-67
2021/08/19 12:39:49;;;;;;;3.60;0.82;;;23.80;55.80;;;;;;5012528;28;20501;-74
2021/08/19 12:42:14;;;;;;;1.42;0.80;;;23.80;56.00;;;;;;5010873;28;20046;-67
2021/08/19 12:44:41;;;;;;;1.95;0.70;;;23.80;56.10;;;;;;5012395;28;20226;-69
2021/08/19 12:47:07;;;;;;;0.90;0.90;;;23.80;56.50;;;;;;5011817;28;20113;-62
2021/08/19 12:49:34;;;;;;;1.23;0.90;;;23.70;56.70;;;;;;5011237;28;20511;-66